This is the latest recevied weather packets stored in our database for station/object EB1HRW. If no packets are shown the sender has not sent any weather packets the latest 1 day(s).
| Time | Temp. | Humidity | Pressure | Rain* | Wind** | Luminosity | Snow |
|---|---|---|---|---|---|---|---|
| 1778103537 | 11.67° C | 70% | 1011.2 hPa | 0 mm | - | - | - |
| 1778099938 | 12.78° C | 66% | 1011.2 hPa | 0 mm | - | - | - |
| 1778097237 | 13.89° C | 59% | 1010.9 hPa | 0 mm | - | - | - |
| 1778096338 | 14.44° C | 57% | 1010.8 hPa | 0 mm | - | - | - |
| 1778090037 | 16.67° C | 47% | 1010.6 hPa | 0 mm | - | - | - |
| 1778087338 | 17.22° C | 44% | 1010.8 hPa | 0 mm | - | - | - |
| 1778084638 | 16.67° C | 45% | 1011.3 hPa | 0 mm | - | - | - |
| 1778083738 | 16.67° C | 45% | 1011.4 hPa | 0 mm | - | - | - |
| 1778081038 | 16.11° C | 47% | 1011.6 hPa | 0 mm | - | - | - |
| 1778073840 | 16.11° C | 47% | 1013 hPa | 0 mm | - | - | - |
| 1778072039 | 15.56° C | 47% | 1013.2 hPa | 0 mm | - | - | - |
| 1778069339 | 15° C | 50% | 1013.5 hPa | 0 mm | - | - | - |
| 1778066639 | 13.33° C | 56% | 1014.1 hPa | 0 mm | - | - | - |
| 1778065739 | 13.33° C | 57% | 1014.2 hPa | 0 mm | - | - | - |
| 1778062138 | 11.67° C | 60% | 1014.3 hPa | 0 mm | - | - | - |
| 1778061237 | 11.67° C | 67% | 1014.3 hPa | 0 mm | - | - | - |
| 1778058537 | 10° C | 82% | 1014.5 hPa | 0 mm | - | - | - |
| 1778057638 | 8.89° C | 84% | 1014.4 hPa | 0 mm | - | - | - |
| 1778055837 | 8.33° C | 85% | 1014.5 hPa | 0 mm | - | - | - |
| 1778054938 | 7.78° C | 84% | 1014.5 hPa | 0 mm | - | - | - |
| 1778053138 | 7.22° C | 83% | 1014.6 hPa | 0 mm | - | - | - |
| 1778051338 | 5.56° C | 80% | 1014.6 hPa | 0 mm | - | - | - |
| 1778049539 | 5° C | 79% | 1014.4 hPa | 0 mm | - | - | - |
| 1778048638 | 4.44° C | 79% | 1014.3 hPa | 0 mm | - | - | - |
| 1778047737 | 3.89° C | 80% | 1014.5 hPa | 0 mm | - | - | - |
* Rain latest hour (hover to see other rain measurements)
** Current wind speed in m/s (hover to see current wind gust speed)